Time;durP1;ratioP1;P1;durP2;ratioP2;P2;SDS_P1;SDS_P2;PMS_P1;PMS_P2;Temp;Humidity;BMP_temperature;BMP_pressure;BME280_temperature;BME280_humidity;BME280_pressure;Samples;Min_cycle;Max_cycle;Signal;HPM_P1;HPM_P2
2022/04/22 00:02:04;;;;;;;9.20;4.65;;;;;;;14.16;44.79;100871.81;4978492;28;119444;-73
2022/04/22 00:04:33;;;;;;;7.05;4.55;;;;;;;14.13;45.13;100872.03;4975759;28;118087;-73
2022/04/22 00:07:02;;;;;;;8.95;4.78;;;;;;;14.08;44.91;100879.41;4971746;28;123850;-73
2022/04/22 00:09:29;;;;;;;8.25;4.95;;;;;;;14.05;45.45;100874.25;4977312;28;124448;-73
2022/04/22 00:11:56;;;;;;;7.65;4.82;;;;;;;14.01;45.14;100868.28;4983770;28;119190;-73
2022/04/22 00:14:24;;;;;;;11.57;4.97;;;;;;;13.98;45.41;100867.59;4968082;28;118498;-73
2022/04/22 00:16:51;;;;;;;9.05;5.07;;;;;;;13.97;45.67;100865.88;4992911;28;124471;-73
2022/04/22 00:19:18;;;;;;;8.18;5.00;;;;;;;13.95;45.73;100867.78;4976666;28;124266;-72
2022/04/22 00:21:47;;;;;;;7.63;5.15;;;;;;;13.92;45.77;100862.63;4973169;28;120297;-73
2022/04/22 00:24:16;;;;;;;9.00;5.25;;;;;;;13.90;45.86;100859.19;4977244;28;119736;-73
2022/04/22 00:26:43;;;;;;;8.63;5.40;;;;;;;13.87;46.28;100854.06;4994464;28;124562;-73
2022/04/22 00:29:11;;;;;;;7.93;5.05;;;;;;;13.83;46.26;100854.25;4956339;28;122779;-73
2022/04/22 00:31:39;;;;;;;9.93;6.10;;;;;;;13.81;46.31;100853.47;4997131;28;118952;-73
2022/04/22 00:34:06;;;;;;;11.93;5.97;;;;;;;13.79;46.52;100847.38;4979057;28;118492;-73
2022/04/22 00:36:33;;;;;;;9.05;5.72;;;;;;;13.77;46.90;100854.59;4981848;28;123801;-73
2022/04/22 00:39:01;;;;;;;8.73;5.57;;;;;;;13.73;46.81;100853.06;4977146;28;123618;-73
2022/04/22 00:41:29;;;;;;;8.82;5.55;;;;;;;13.72;46.93;100856.66;4979969;28;119922;-73
2022/04/22 00:43:56;;;;;;;13.55;6.13;;;;;;;13.67;47.06;100853.41;4980836;28;118302;-74
2022/04/22 00:46:24;;;;;;;9.55;5.80;;;;;;;13.64;47.36;100848.28;4969760;28;124288;-74
2022/04/22 00:48:51;;;;;;;9.88;5.80;;;;;;;13.62;47.38;100850.19;4980372;28;123345;-73
2022/04/22 00:51:21;;;;;;;8.95;5.85;;;;;;;13.60;47.43;100846.75;4976460;28;119588;-73
2022/04/22 00:53:51;;;;;;;9.88;6.20;;;;;;;13.57;47.83;100842.44;4983517;28;119332;-73
2022/04/22 00:56:19;;;;;;;11.13;5.95;;;;;;;13.57;47.99;100841.59;4998034;28;126001;-72
2022/04/22 00:58:49;;;;;;;11.63;6.55;;;;;;;13.54;48.01;100847.97;4982296;28;124652;-72
2022/04/22 01:01:16;;;;;;;8.63;6.13;;;;;;;13.53;48.01;100845.38;4973873;28;120628;-73
2022/04/22 01:12:09;;;;;;;9.30;6.15;;;;;;;13.43;48.56;100839.72;4971912;28;119979;-73
2022/04/22 01:14:37;;;;;;;10.82;6.28;;;;;;;13.40;48.67;100835.44;4971814;28;118956;-72
2022/04/22 01:17:05;;;;;;;10.45;5.97;;;;;;;13.37;48.45;100835.63;4985514;28;126835;-73
2022/04/22 01:19:33;;;;;;;11.57;6.47;;;;;;;13.36;48.63;100827.72;4993400;28;123582;-73
2022/04/22 01:22:01;;;;;;;11.95;6.60;;;;;;;13.33;48.77;100822.56;4972638;28;120085;-73
2022/04/22 01:24:28;;;;;;;9.93;6.43;;;;;;;13.30;48.70;100812.97;4994461;28;119335;-73
2022/04/22 01:26:57;;;;;;;10.85;6.65;;;;;;;13.28;49.00;100820.16;4971074;28;123724;-74
2022/04/22 01:29:25;;;;;;;8.77;6.07;;;;;;;13.25;48.95;100815.84;4983274;28;123662;-73
2022/04/22 01:31:52;;;;;;;11.90;7.25;;;;;;;13.24;48.98;100818.56;4979337;28;119125;-73
2022/04/22 01:34:19;;;;;;;11.63;6.78;;;;;;;13.22;49.07;100815.16;4980252;28;118892;-73
2022/04/22 01:36:46;;;;;;;10.35;6.22;;;;;;;13.22;49.26;100815.16;4973249;28;123646;-73
2022/04/22 01:39:13;;;;;;;10.10;6.78;;;;;;;13.22;48.90;100815.16;4982101;28;122972;-73
2022/04/22 01:41:41;;;;;;;11.20;6.70;;;;;;;13.20;49.36;100806.41;4972719;28;119298;-73
2022/04/22 01:44:08;;;;;;;15.45;6.57;;;;;;;13.18;49.29;100809.16;4976629;28;119518;-73
2022/04/22 01:46:36;;;;;;;12.38;6.95;;;;;;;13.17;49.22;100801.28;4988383;28;123625;-73
2022/04/22 01:49:03;;;;;;;10.70;6.60;;;;;;;13.14;49.37;100807.59;4981325;28;124493;-73
2022/04/22 01:51:30;;;;;;;11.02;7.10;;;;;;;13.13;49.26;100805.03;4996563;28;118056;-73
2022/04/22 01:53:57;;;;;;;12.18;6.53;;;;;;;13.09;49.34;100803.50;4977299;28;119294;-73
2022/04/22 01:56:24;;;;;;;8.90;6.38;;;;;;;13.07;49.50;100810.69;4993009;28;123722;-73
2022/04/22 01:58:52;;;;;;;10.13;6.72;;;;;;;13.04;49.29;100807.28;4994893;28;123304;-73
2022/04/22 02:01:20;;;;;;;12.88;7.03;;;;;;;13.02;49.38;100803.84;4978283;28;120501;-73
2022/04/22 02:03:47;;;;;;;10.52;6.97;;;;;;;13.00;49.50;100804.88;4975329;28;120396;-72
2022/04/22 02:06:14;;;;;;;12.43;6.65;;;;;;;12.96;49.40;100809.50;4972448;28;124077;-73
2022/04/22 02:08:42;;;;;;;11.90;6.97;;;;;;;12.95;49.43;100813.09;4977908;28;124580;-72
2022/04/22 02:11:09;;;;;;;11.25;7.20;;;;;;;12.95;49.36;100806.94;4990084;28;119300;-73
2022/04/22 02:13:39;;;;;;;11.05;6.63;;;;;;;12.93;49.17;100807.00;4987797;28;118293;-73
2022/04/22 02:16:07;;;;;;;13.05;6.88;;;;;;;12.92;49.46;100802.66;4967409;28;125401;-73
2022/04/22 02:18:37;;;;;;;13.35;6.85;;;;;;;12.91;49.22;100797.41;4973407;28;123907;-73
2022/04/22 02:21:06;;;;;;;12.77;6.75;;;;;;;12.88;49.39;100803.75;4970347;28;118506;-73
2022/04/22 02:23:33;;;;;;;15.73;6.90;;;;;;;12.87;49.73;100807.38;4985407;28;118958;-73
2022/04/22 02:26:00;;;;;;;12.65;7.30;;;;;;;12.84;49.20;100810.19;4965279;28;123541;-73
2022/04/22 02:28:34;;;;;;;11.00;6.53;;;;;;;12.81;49.46;100805.91;4986724;28;125463;-73
2022/04/22 02:31:09;;;;;;;11.18;7.03;;;;;;;12.80;49.37;100803.31;4984525;28;118099;-73
2022/04/22 02:33:38;;;;;;;;;;;;;;;12.76;48.68;100807.09;4980562;28;118765;-73
2022/04/22 02:36:06;;;;;;;9.95;6.75;;;;;;;12.77;49.25;100808.78;4976642;28;124978;-73
2022/04/22 02:38:34;;;;;;;11.77;7.38;;;;;;;12.74;49.04;100803.66;4972202;28;123405;-73
2022/04/22 02:46:33;;;;;;;10.82;6.95;;;;;;;12.66;49.23;100791.66;4973290;28;123615;-73
2022/04/22 02:49:00;;;;;;;12.15;7.22;;;;;;;12.65;49.20;100795.22;4971960;28;124460;-72
2022/04/22 02:51:28;;;;;;;13.15;7.45;;;;;;;12.64;49.25;100788.22;4979360;28;120457;-73
2022/04/22 02:53:55;;;;;;;10.85;7.22;;;;;;;12.63;49.38;100783.84;4992715;28;119804;-74
2022/04/22 02:56:23;;;;;;;13.63;7.05;;;;;;;12.61;49.48;100777.75;4983009;28;124601;-73
2022/04/22 02:58:51;;;;;;;13.27;7.63;;;;;;;12.61;49.32;100772.44;4961730;28;123197;-73
2022/04/22 03:01:18;;;;;;;13.35;7.80;;;;;;;12.60;49.41;100770.75;4979519;28;119573;-73
2022/04/22 03:03:46;;;;;;;12.45;7.40;;;;;;;12.60;49.50;100769.84;4970518;28;119179;-73
2022/04/22 03:06:13;;;;;;;12.70;7.57;;;;;;;12.60;49.32;100770.75;4972985;28;123685;-73
2022/04/22 03:08:40;;;;;;;15.48;8.18;;;;;;;12.61;49.49;100780.41;4993565;28;123198;-74
2022/04/22 03:11:07;;;;;;;12.25;7.60;;;;;;;12.62;49.63;100773.28;4958853;28;118374;-73
2022/04/22 03:13:34;;;;;;;14.43;8.10;;;;;;;12.60;49.29;100786.69;4974965;28;117515;-73
2022/04/22 03:16:02;;;;;;;12.55;7.68;;;;;;;12.59;49.47;100779.63;4981414;28;123643;-74
2022/04/22 03:18:30;;;;;;;12.00;7.55;;;;;;;12.58;49.21;100767.31;4979335;28;123664;-75
2022/04/22 03:20:58;;;;;;;13.38;7.65;;;;;;;12.58;49.49;100766.44;4998357;28;119527;-74
2022/04/22 03:23:25;;;;;;;16.52;8.30;;;;;;;12.53;49.52;100769.34;4982083;28;117720;-73
2022/04/22 03:25:54;;;;;;;14.70;8.05;;;;;;;12.50;49.51;100774.81;4989595;28;123342;-73
2022/04/22 03:28:23;;;;;;;14.43;8.23;;;;;;;12.47;49.72;100775.00;4977223;28;122637;-73
2022/04/22 03:30:50;;;;;;;13.50;8.27;;;;;;;12.46;49.80;100775.94;4978312;28;119238;-73
2022/04/22 03:33:19;;;;;;;14.73;8.05;;;;;;;12.45;49.97;100771.53;4994395;28;119210;-73
2022/04/22 03:35:50;;;;;;;14.68;8.65;;;;;;;12.43;50.18;100774.31;4980148;28;123402;-73
2022/04/22 03:38:19;;;;;;;13.32;7.68;;;;;;;12.43;50.33;100769.00;4968476;28;124142;-73
2022/04/22 03:40:47;;;;;;;16.48;8.30;;;;;;;12.46;50.33;100767.97;4977703;28;119642;-73
2022/04/22 03:43:15;;;;;;;14.70;8.30;;;;;;;12.47;50.53;100764.38;4989276;28;120040;-73
2022/04/22 03:45:42;;;;;;;14.35;8.60;;;;;;;12.49;50.27;100759.84;4955258;28;124112;-73
2022/04/22 03:48:11;;;;;;;14.93;8.85;;;;;;;12.50;50.77;100753.56;4973229;28;123510;-73
2022/04/22 03:50:38;;;;;;;17.13;9.43;;;;;;;12.51;50.46;100749.97;4973518;28;119669;-73
2022/04/22 03:53:06;;;;;;;14.27;8.57;;;;;;;12.54;50.71;100755.09;4993361;28;119284;-73
2022/04/22 03:55:33;;;;;;;15.20;8.30;;;;;;;12.55;50.65;100751.53;4982034;28;124722;-73
2022/04/22 03:58:12;;;;;;;14.95;8.65;;;;;;;12.57;50.59;100748.78;4982789;28;123923;-74
2022/04/22 04:00:42;;;;;;;16.33;8.75;;;;;;;12.57;50.66;100749.63;4986360;28;119830;-73
2022/04/22 04:03:10;;;;;;;15.02;8.60;;;;;;;12.56;50.59;100742.59;4983247;28;119181;-73
2022/04/22 04:05:39;;;;;;;13.18;7.65;;;;;;;12.59;50.53;100752.22;4984390;28;123801;-73
2022/04/22 04:08:10;;;;;;;13.75;8.20;;;;;;;12.59;50.60;100745.09;4974461;28;123893;-75
2022/04/22 04:16:08;;;;;;;13.75;8.50;;;;;;;12.51;50.37;100749.97;4981566;28;124344;-73
2022/04/22 04:18:37;;;;;;;14.02;8.00;;;;;;;12.50;51.02;100748.25;4982086;28;124495;-73
2022/04/22 04:23:53;;;;;;;14.63;7.88;;;;;;;12.46;50.76;100747.56;4972963;28;118977;-73
2022/04/22 04:26:21;;;;;;;13.25;7.78;;;;;;;12.44;50.84;100748.59;4982213;28;124349;-73
2022/04/22 04:28:50;;;;;;;13.55;8.15;;;;;;;12.42;50.78;100755.78;4977235;28;123803;-73
2022/04/22 04:31:18;;;;;;;14.40;7.95;;;;;;;12.39;50.92;100751.50;4976836;28;119928;-74
2022/04/22 04:33:46;;;;;;;15.88;8.45;;;;;;;12.38;51.10;100754.25;4985351;28;121060;-73
2022/04/22 04:36:15;;;;;;;14.02;8.00;;;;;;;12.34;51.27;100742.94;4989816;28;124064;-73
2022/04/22 04:38:43;;;;;;;13.02;7.78;;;;;;;12.33;51.33;100745.66;4974362;28;124304;-73
2022/04/22 04:41:12;;;;;;;14.02;8.05;;;;;;;12.31;51.39;100742.25;4973747;28;118633;-73
2022/04/22 04:43:40;;;;;;;17.60;8.82;;;;;;;12.29;51.73;100752.09;4975716;28;119106;-75
2022/04/22 04:46:07;;;;;;;17.02;8.52;;;;;;;12.26;51.99;100746.00;4984494;28;124976;-73
2022/04/22 04:48:36;;;;;;;15.40;8.73;;;;;;;12.22;52.02;100747.13;4973377;28;123752;-73
2022/04/22 04:51:03;;;;;;;16.02;9.30;;;;;;;12.22;52.39;100739.16;4975604;28;118438;-72
2022/04/22 04:53:30;;;;;;;16.98;9.73;;;;;;;12.21;52.61;100742.72;4974535;28;118822;-73
2022/04/22 04:55:58;;;;;;;17.92;9.57;;;;;;;12.22;52.93;100739.16;4973800;28;123590;-73
2022/04/22 04:58:25;;;;;;;17.70;10.60;;;;;;;12.21;52.98;100745.38;4971378;28;123926;-73
2022/04/22 05:00:53;;;;;;;17.00;9.80;;;;;;;12.21;53.19;100748.03;4968458;28;120290;-73
2022/04/22 05:03:20;;;;;;;19.55;10.07;;;;;;;12.21;53.87;100750.69;4977510;28;118433;-74
2022/04/22 05:05:47;;;;;;;17.15;9.73;;;;;;;12.22;53.55;100749.78;4976043;28;124004;-73
2022/04/22 05:08:14;;;;;;;17.27;9.68;;;;;;;12.25;53.29;100744.28;4980441;28;123939;-73
2022/04/22 05:10:41;;;;;;;19.20;10.07;;;;;;;12.27;53.69;100747.69;4970908;28;118560;-73
2022/04/22 05:13:09;;;;;;;17.75;9.32;;;;;;;12.31;53.68;100747.53;4994333;28;118304;-73
2022/04/22 05:15:36;;;;;;;17.75;9.80;;;;;;;12.33;53.35;100750.97;4994090;28;124154;-73
2022/04/22 05:18:03;;;;;;;15.80;9.77;;;;;;;12.38;53.48;100748.94;4970532;28;125533;-73
2022/04/22 05:20:32;;;;;;;17.83;10.45;;;;;;;12.40;53.61;100757.69;4969973;28;120369;-72
2022/04/22 05:22:59;;;;;;;18.63;10.25;;;;;;;12.43;53.53;100752.19;4978545;28;119784;-74
2022/04/22 05:25:27;;;;;;;18.85;10.80;;;;;;;12.47;54.02;100756.41;4963400;28;123068;-73
2022/04/22 05:27:54;;;;;;;18.73;11.52;;;;;;;12.48;54.20;100750.13;4979864;28;124403;-73
2022/04/22 05:33:07;;;;;;;18.35;10.77;;;;;;;12.51;54.48;100755.28;4975551;28;119923;-74
2022/04/22 05:35:34;;;;;;;19.90;10.55;;;;;;;12.54;54.82;100755.09;4980412;28;124806;-73
2022/04/22 05:38:06;;;;;;;17.60;11.13;;;;;;;12.58;54.79;100751.38;4974380;28;122541;-73
2022/04/22 05:40:38;;;;;;;20.23;11.10;;;;;;;12.61;54.86;100751.19;4969931;28;118240;-73
2022/04/22 05:43:06;;;;;;;18.85;11.10;;;;;;;12.66;54.86;100751.78;4977051;28;117824;-74
2022/04/22 05:45:35;;;;;;;19.65;11.70;;;;;;;12.72;54.77;100753.25;4972037;28;124671;-73
2022/04/22 05:48:02;;;;;;;22.08;11.75;;;;;;;12.78;54.94;100746.75;4976907;28;126498;-73
2022/04/22 05:50:29;;;;;;;18.02;11.05;;;;;;;12.82;55.27;100753.59;4972456;28;118343;-74
2022/04/22 05:52:57;;;;;;;18.75;12.20;;;;;;;12.87;55.46;100756.84;4979099;28;119216;-75
2022/04/22 05:55:27;;;;;;;19.08;11.90;;;;;;;12.93;55.49;100753.84;4980405;28;124519;-73
2022/04/22 05:57:55;;;;;;;17.27;11.38;;;;;;;12.98;55.33;100749.13;4977897;28;125230;-73
2022/04/22 06:00:25;;;;;;;17.85;11.10;;;;;;;13.03;55.16;100749.75;4973525;28;119871;-75
2022/04/22 06:02:53;;;;;;;17.92;11.50;;;;;;;13.11;54.96;100753.75;4982184;28;117864;-76
2022/04/22 06:05:22;;;;;;;20.77;11.70;;;;;;;13.16;55.48;100757.00;4988829;28;123896;-73
2022/04/22 06:10:38;;;;;;;22.30;12.32;;;;;;;13.24;55.68;100744.09;4970583;28;119577;-74
2022/04/22 06:13:06;;;;;;;20.30;12.63;;;;;;;13.28;55.65;100748.34;4981898;28;120230;-75
2022/04/22 06:15:33;;;;;;;19.08;11.90;;;;;;;13.33;55.78;100743.63;4977775;28;123926;-75
2022/04/22 06:18:01;;;;;;;21.77;11.57;;;;;;;13.39;55.59;100747.72;4974117;28;123738;-74
2022/04/22 06:20:29;;;;;;;20.60;11.75;;;;;;;13.46;55.88;100748.22;4980362;28;120077;-76
2022/04/22 06:22:57;;;;;;;19.27;11.88;;;;;;;13.50;56.05;100739.13;4974518;28;117940;-75
2022/04/22 06:25:24;;;;;;;19.70;12.00;;;;;;;13.56;55.89;100744.06;4972714;28;124002;-75
2022/04/22 06:27:51;;;;;;;17.65;11.65;;;;;;;13.62;56.03;100743.72;4968705;28;122739;-75
2022/04/22 06:30:21;;;;;;;20.20;12.27;;;;;;;13.68;55.86;100743.34;4979314;28;119674;-75
2022/04/22 06:32:50;;;;;;;18.23;11.90;;;;;;;13.75;55.85;100744.72;4987981;28;118645;-74
2022/04/22 06:35:19;;;;;;;20.00;12.05;;;;;;;13.83;55.61;100737.09;4987811;28;124691;-75
2022/04/22 06:37:48;;;;;;;18.45;12.50;;;;;;;13.93;55.76;100736.53;4983484;28;123561;-74
2022/04/22 06:45:51;;;;;;;17.85;11.40;;;;;;;14.20;55.36;100745.50;4972661;28;124831;-75
2022/04/22 06:48:25;;;;;;;19.90;12.13;;;;;;;14.31;54.94;100746.66;4974361;28;123763;-76
2022/04/22 06:51:11;;;;;;;17.77;11.85;;;;;;;14.44;55.14;100731.59;4975322;28;118364;-76
2022/04/22 06:53:39;;;;;;;17.55;11.50;;;;;;;14.52;54.81;100732.00;4967757;28;118488;-75
2022/04/22 06:56:06;;;;;;;17.15;11.05;;;;;;;14.62;54.56;100740.28;4976082;28;124486;-76
2022/04/22 06:58:38;;;;;;;17.65;11.90;;;;;;;14.73;54.64;100742.25;4978039;28;124746;-76
2022/04/22 07:01:07;;;;;;;17.88;12.02;;;;;;;14.82;54.25;100746.97;4970565;28;119426;-76
2022/04/22 07:03:56;;;;;;;19.38;11.63;;;;;;;14.88;54.13;100746.63;4975134;28;119932;-76
2022/04/22 07:06:24;;;;;;;17.20;11.30;;;;;;;14.96;53.90;100733.63;4971055;28;124197;-76
2022/04/22 07:08:51;;;;;;;16.27;11.10;;;;;;;15.05;53.73;100736.63;4977415;28;123678;-76
2022/04/22 07:11:28;;;;;;;16.20;10.77;;;;;;;15.12;53.78;100738.78;4989269;28;119426;-76
2022/04/22 07:14:00;;;;;;;18.92;11.55;;;;;;;15.23;53.56;100732.75;4969967;28;119604;-76
2022/04/22 07:16:27;;;;;;;19.65;11.70;;;;;;;15.33;53.41;100731.22;4974273;28;123200;-76
2022/04/22 07:18:56;;;;;;;17.20;10.48;;;;;;;15.38;53.07;100734.41;4939597;28;123008;-76
2022/04/22 07:21:24;;;;;;;15.57;11.05;;;;;;;15.36;52.77;100725.66;4969396;28;119836;-74
2022/04/22 07:23:53;;;;;;;20.02;11.68;;;;;;;15.35;52.63;100721.28;4974897;28;117911;-74
2022/04/22 07:26:20;;;;;;;15.60;11.10;;;;;;;15.34;52.74;100716.88;4975731;28;124469;-76
2022/04/22 07:28:49;;;;;;;16.55;11.55;;;;;;;15.31;52.55;100722.44;4974813;28;123944;-76
2022/04/22 07:31:18;;;;;;;16.00;11.23;;;;;;;15.30;52.54;100720.72;4953682;28;117832;-75
2022/04/22 07:33:46;;;;;;;19.63;12.68;;;;;;;15.29;52.68;100727.00;4973321;28;118985;-75
2022/04/22 07:36:14;;;;;;;16.65;11.45;;;;;;;15.28;52.77;100727.97;4971353;28;123966;-76
2022/04/22 07:38:41;;;;;;;17.15;10.50;;;;;;;15.31;52.80;100729.56;4969003;28;122359;-75
2022/04/22 07:41:09;;;;;;;15.98;11.27;;;;;;;15.31;52.76;100722.44;4992802;28;117962;-74
2022/04/22 07:46:46;;;;;;;15.38;10.85;;;;;;;15.34;52.47;100724.91;4938963;28;122887;-75
2022/04/22 07:49:14;;;;;;;17.05;11.18;;;;;;;15.34;52.51;100722.22;4990251;28;123896;-75
2022/04/22 07:51:41;;;;;;;16.30;10.40;;;;;;;15.34;52.38;100722.22;5006043;28;119184;-75
2022/04/22 07:54:08;;;;;;;17.60;11.00;;;;;;;15.34;52.36;100727.56;5007374;28;119719;-76
2022/04/22 07:56:35;;;;;;;18.15;10.90;;;;;;;15.35;52.39;100712.41;5006755;28;123938;-75
2022/04/22 07:59:03;;;;;;;17.95;11.48;;;;;;;15.36;52.52;100714.97;4991154;28;123857;-75
2022/04/22 08:01:30;;;;;;;20.00;11.80;;;;;;;15.37;52.42;100727.38;5000941;28;119630;-76
2022/04/22 08:03:58;;;;;;;16.50;11.10;;;;;;;15.38;52.55;100706.88;5000293;28;119500;-76
2022/04/22 08:06:25;;;;;;;17.00;11.85;;;;;;;15.44;52.56;100705.59;5008183;28;123916;-76
2022/04/22 08:08:52;;;;;;;16.67;10.95;;;;;;;15.52;52.55;100697.91;5009532;28;123401;-76
2022/04/22 08:11:20;;;;;;;15.77;11.07;;;;;;;15.64;52.63;100691.75;5008608;28;119162;-78
2022/04/22 08:13:47;;;;;;;19.52;12.10;;;;;;;15.78;52.52;100688.16;5006375;28;118744;-77
2022/04/22 08:16:14;;;;;;;16.65;10.25;;;;;;;15.95;52.47;100686.97;5005822;28;123080;-75
2022/04/22 08:18:41;;;;;;;15.25;10.50;;;;;;;16.17;52.16;100698.84;5006662;28;124345;-75
2022/04/22 08:21:10;;;;;;;15.93;10.95;;;;;;;16.39;52.03;100699.00;5007610;28;118967;-75
2022/04/22 08:23:37;;;;;;;14.38;10.18;;;;;;;16.54;51.36;100699.72;5008818;28;118871;-76
2022/04/22 08:26:04;;;;;;;18.40;11.00;;;;;;;16.60;50.87;100701.94;5007369;28;124184;-77
2022/04/22 08:28:31;;;;;;;15.35;10.45;;;;;;;16.69;50.70;100697.75;5007162;28;123958;-75
2022/04/22 08:30:58;;;;;;;15.85;11.30;;;;;;;16.76;50.29;100696.31;5004475;28;118004;-75
2022/04/22 08:33:26;;;;;;;14.73;10.60;;;;;;;16.83;50.15;100694.09;4978892;28;118963;-76
2022/04/22 08:35:53;;;;;;;14.27;10.45;;;;;;;16.91;49.96;100694.38;4974861;28;124036;-76
2022/04/22 08:38:20;;;;;;;15.95;10.63;;;;;;;17.00;49.63;100692.84;4973784;28;123335;-75
2022/04/22 08:40:47;;;;;;;15.27;10.73;;;;;;;17.06;49.34;100685.19;4990500;28;120519;-76
2022/04/22 08:43:15;;;;;;;16.92;10.80;;;;;;;17.14;49.21;100690.00;4982576;28;119764;-76
2022/04/22 08:45:42;;;;;;;14.32;10.07;;;;;;;17.20;48.93;100689.53;4997200;28;123855;-75
2022/04/22 08:50:55;;;;;;;15.48;10.20;;;;;;;17.38;48.82;100683.75;4987330;28;119409;-76
2022/04/22 08:53:26;;;;;;;16.08;10.15;;;;;;;17.43;48.26;100689.59;4989168;28;118615;-76
2022/04/22 08:55:57;;;;;;;14.15;10.13;;;;;;;17.45;48.17;100677.78;4989354;28;124001;-76
2022/04/22 08:58:26;;;;;;;13.35;10.05;;;;;;;17.55;48.39;100677.09;4988470;28;123974;-76
2022/04/22 09:00:57;;;;;;;12.15;9.07;;;;;;;17.65;48.28;100673.59;4990724;28;119775;-76
2022/04/22 09:03:27;;;;;;;13.95;9.57;;;;;;;17.77;48.00;100676.28;4989957;28;118206;-75
2022/04/22 09:05:59;;;;;;;12.57;9.60;;;;;;;17.88;47.87;100668.28;4986880;28;125360;-75
2022/04/22 09:08:28;;;;;;;12.32;9.30;;;;;;;17.95;47.20;100669.53;4985598;28;124345;-74
2022/04/22 09:10:56;;;;;;;13.18;8.82;;;;;;;18.00;46.85;100672.66;4988704;28;119208;-75
2022/04/22 09:13:26;;;;;;;13.25;8.80;;;;;;;18.06;47.02;100666.84;4989283;28;119195;-75
2022/04/22 09:15:55;;;;;;;12.25;8.65;;;;;;;18.13;46.51;100650.25;4987122;28;123575;-76
2022/04/22 09:18:38;;;;;;;11.63;7.50;;;;;;;18.13;45.94;100658.31;4987878;28;123620;-76
2022/04/22 09:21:06;;;;;;;11.30;8.18;;;;;;;18.13;45.88;100655.63;4989708;28;119984;-76
2022/04/22 09:23:35;;;;;;;12.18;7.63;;;;;;;18.14;45.91;100654.63;4989549;28;118687;-77
2022/04/22 09:26:04;;;;;;;10.55;7.70;;;;;;;18.17;45.67;100651.72;4989490;28;122443;-74
2022/04/22 09:28:32;;;;;;;12.38;8.27;;;;;;;18.20;45.76;100651.47;4986985;28;124628;-75
2022/04/22 09:31:02;;;;;;;13.23;8.07;;;;;;;18.26;45.93;100656.34;4987541;28;119739;-75
2022/04/22 09:33:41;;;;;;;11.30;7.93;;;;;;;18.36;45.81;100657.28;4987116;28;120051;-75
2022/04/22 09:45:07;;;;;;;9.95;7.43;;;;;;;18.95;44.82;100631.06;4986544;28;117907;-75
2022/04/22 09:47:37;;;;;;;10.90;7.47;;;;;;;19.12;44.56;100638.56;4986196;28;123484;-74
2022/04/22 09:50:10;;;;;;;9.98;7.72;;;;;;;19.23;43.49;100630.47;4986928;28;125204;-75
2022/04/22 09:52:43;;;;;;;10.10;7.00;;;;;;;19.32;43.95;100622.59;4987458;28;118780;-74
2022/04/22 09:55:15;;;;;;;10.18;7.05;;;;;;;19.48;43.42;100616.75;4986346;28;119757;-76
2022/04/22 09:57:52;;;;;;;13.35;7.75;;;;;;;19.51;42.17;100611.97;4985968;28;124795;-76
2022/04/22 10:00:30;;;;;;;8.88;7.22;;;;;;;19.45;42.12;100618.72;4991573;28;122050;-76
2022/04/22 10:02:58;;;;;;;10.45;7.90;;;;;;;19.40;42.23;100606.66;5001602;28;119426;-75
2022/04/22 10:05:28;;;;;;;10.50;7.47;;;;;;;19.39;42.47;100602.28;4978525;28;120384;-76
2022/04/22 10:07:57;;;;;;;10.70;7.55;;;;;;;19.41;42.59;100608.38;4965984;28;123606;-78
2022/04/22 10:10:29;;;;;;;10.98;8.15;;;;;;;19.39;42.03;100607.66;4982350;28;123953;-75
2022/04/22 10:12:58;;;;;;;11.85;8.02;;;;;;;19.35;41.83;100600.84;4987126;28;118472;-76
2022/04/22 10:15:27;;;;;;;11.73;9.10;;;;;;;19.23;41.48;100582.13;4996161;28;119136;-76
2022/04/22 10:17:55;;;;;;;11.15;8.25;;;;;;;19.12;41.21;100584.00;5008925;28;123427;-75
2022/04/22 10:20:24;;;;;;;10.63;7.75;;;;;;;19.00;41.69;100585.91;4976615;28;123681;-75
2022/04/22 10:22:51;;;;;;;12.98;8.15;;;;;;;18.95;41.87;100593.50;4983892;28;119839;-73
2022/04/22 10:25:18;;;;;;;11.23;7.40;;;;;;;18.89;41.94;100594.00;4981739;28;119228;-74
2022/04/22 10:27:46;;;;;;;12.13;7.80;;;;;;;18.87;42.21;100596.81;4998447;28;123801;-74
2022/04/22 10:30:15;;;;;;;10.00;7.22;;;;;;;18.83;42.33;100585.50;5007172;28;123708;-74
2022/04/22 10:32:47;;;;;;;11.68;8.38;;;;;;;18.83;42.20;100590.00;4969156;28;118267;-75
2022/04/22 10:35:14;;;;;;;12.55;8.55;;;;;;;18.78;42.24;100601.13;4982681;28;118286;-76
2022/04/22 10:37:42;;;;;;;11.90;8.73;;;;;;;18.72;42.39;100598.91;4964525;28;124740;-75
2022/04/22 10:40:20;;;;;;;10.32;8.02;;;;;;;18.64;42.34;100593.34;4972044;28;124203;-75
2022/04/22 10:42:50;;;;;;;12.45;8.63;;;;;;;18.58;42.25;100585.81;4993159;28;120626;-74
2022/04/22 10:48:27;;;;;;;11.73;8.40;;;;;;;18.45;42.41;100581.47;4976745;28;124054;-76
2022/04/22 10:50:59;;;;;;;12.68;8.57;;;;;;;18.41;42.42;100589.91;4967659;28;123070;-76
2022/04/22 10:53:28;;;;;;;12.85;8.63;;;;;;;18.40;42.62;100599.78;4964774;28;119386;-76
2022/04/22 10:56:26;;;;;;;15.00;8.30;;;;;;;18.38;42.81;100585.63;4971720;28;119539;-76
2022/04/22 10:59:15;;;;;;;12.30;8.30;;;;;;;18.37;42.82;100589.28;4971780;28;123091;-75
2022/04/22 11:01:46;;;;;;;12.32;8.32;;;;;;;18.36;43.08;100592.94;4973187;28;124074;-75
2022/04/22 11:04:26;;;;;;;11.85;8.10;;;;;;;18.37;42.74;100594.66;4976949;28;119533;-75
2022/04/22 11:06:54;;;;;;;13.02;8.27;;;;;;;18.36;42.96;100598.31;4977195;28;119042;-74
2022/04/22 11:09:29;;;;;;;13.30;8.45;;;;;;;18.33;42.69;100587.84;4978869;28;124451;-73
2022/04/22 11:11:58;;;;;;;15.07;8.60;;;;;;;18.30;42.96;100582.72;4981972;28;122804;-74
2022/04/22 11:14:28;;;;;;;13.32;8.20;;;;;;;18.28;43.08;100595.41;4987320;28;119344;-74
2022/04/22 11:17:31;;;;;;;12.98;8.00;;;;;;;18.28;43.15;100579.31;4952404;28;120230;-75
2022/04/22 11:19:59;;;;;;;11.40;7.60;;;;;;;18.31;43.32;100579.09;4963525;28;123789;-75
2022/04/22 11:22:58;;;;;;;11.57;7.25;;;;;;;18.37;43.15;100577.72;4981501;28;122836;-75
2022/04/22 11:25:27;;;;;;;10.65;7.47;;;;;;;18.40;43.24;100583.69;4964514;28;119638;-74
2022/04/22 11:27:55;;;;;;;10.65;7.70;;;;;;;18.42;42.96;100581.72;4971235;28;118740;-74
2022/04/22 11:30:25;;;;;;;10.10;6.55;;;;;;;18.44;43.12;100585.13;4972957;28;124298;-77
2022/04/22 11:33:01;;;;;;;11.85;7.22;;;;;;;18.47;42.88;100574.13;4965389;28;122970;-74
2022/04/22 11:35:33;;;;;;;11.00;7.07;;;;;;;18.45;42.62;100570.72;4965204;28;118460;-75
2022/04/22 11:38:06;;;;;;;10.77;7.00;;;;;;;18.51;42.92;100579.25;4968968;28;119676;-75
2022/04/22 11:40:35;;;;;;;10.95;7.07;;;;;;;18.57;42.96;100568.00;4965522;28;124153;-75
2022/04/22 11:43:10;;;;;;;10.93;7.43;;;;;;;18.65;42.66;100568.25;4964219;28;124194;-75
2022/04/22 11:45:44;;;;;;;9.70;6.85;;;;;;;18.70;42.32;100568.69;4980633;28;119571;-76
2022/04/22 11:48:13;;;;;;;10.60;6.97;;;;;;;18.71;42.32;100570.41;4963183;28;119317;-76
2022/04/22 11:50:42;;;;;;;8.90;6.57;;;;;;;18.75;42.54;100566.47;4964960;28;124151;-77
2022/04/22 11:53:15;;;;;;;10.88;6.85;;;;;;;18.78;42.40;100563.56;4964246;28;123577;-76
2022/04/22 11:55:43;;;;;;;9.80;6.30;;;;;;;18.80;42.50;100563.44;4964012;28;119887;-76
2022/04/22 11:58:20;;;;;;;10.65;6.43;;;;;;;18.81;42.36;100554.41;4965454;28;118365;-75
2022/04/22 12:06:24;;;;;;;9.70;6.25;;;;;;;18.74;42.28;100548.69;4980753;28;120739;-76
2022/04/22 12:08:52;;;;;;;13.05;6.53;;;;;;;18.73;42.17;100548.81;4966479;28;120646;-75
2022/04/22 12:11:21;;;;;;;9.40;6.20;;;;;;;18.68;41.95;100543.81;4990581;28;123843;-75
2022/04/22 12:13:49;;;;;;;12.05;6.07;;;;;;;18.65;42.03;100546.78;4978647;28;122878;-75